createdAt,value
2019-04-23T00:01:23.570Z,47.10
2019-04-23T00:03:47.540Z,46.13
2019-04-23T00:08:54.504Z,45.67
2019-04-23T00:21:38.165Z,47.53
2019-04-23T00:26:47.613Z,48.45
2019-04-23T00:29:05.358Z,47.93
2019-04-23T00:31:31.730Z,46.58
2019-04-23T00:34:05.380Z,47.95
2019-04-23T00:36:44.166Z,47.13
2019-04-23T00:39:18.795Z,46.35
2019-04-23T00:44:04.054Z,45.75
2019-04-23T00:46:35.275Z,45.48
2019-04-23T00:49:05.830Z,43.48
2019-04-23T00:51:32.888Z,41.13
2019-04-23T00:54:06.464Z,39.75
2019-04-23T00:59:00.714Z,38.02
2019-04-23T01:04:20.796Z,37.55
2019-04-23T01:06:34.439Z,34.80
2019-04-23T01:09:04.790Z,35.50
2019-04-23T01:11:33.843Z,35.08
2019-04-23T01:16:32.878Z,34.13
2019-04-23T01:19:24.852Z,35.10
2019-04-23T01:21:34.952Z,35.30
2019-04-23T01:24:16.009Z,34.90
2019-04-23T01:27:39.330Z,35.30
2019-04-23T01:30:03.260Z,34.38
2019-04-23T01:32:28.917Z,35.05
2019-04-23T01:35:06.580Z,35.25
2019-04-23T01:37:28.841Z,35.58
2019-04-23T01:39:57.532Z,35.43
2019-04-23T01:42:38.887Z,32.90
2019-04-23T01:45:05.415Z,32.38
2019-04-23T01:47:32.044Z,32.88
2019-04-23T01:50:01.992Z,32.28
2019-04-23T01:52:34.960Z,32.88
2019-04-23T01:55:00.813Z,32.90
2019-04-23T01:57:34.811Z,31.48
2019-04-23T02:00:01.947Z,32.38
2019-04-23T02:02:38.819Z,32.93
2019-04-23T02:05:01.490Z,33.08
2019-04-23T02:07:38.783Z,31.80
2019-04-23T02:10:07.055Z,31.65
2019-04-23T02:12:32.968Z,30.80
2019-04-23T02:15:11.180Z,31.30
2019-04-23T02:20:16.127Z,30.57
2019-04-23T02:23:04.660Z,31.07
2019-04-23T02:25:41.201Z,29.02
2019-04-23T02:28:04.785Z,30.40
2019-04-23T02:30:53.556Z,30.77
2019-04-23T02:35:50.519Z,30.27
2019-04-23T02:38:10.170Z,29.95
2019-04-23T02:40:58.790Z,29.10
2019-04-23T02:43:15.114Z,29.55
2019-04-23T02:45:54.583Z,31.00
2019-04-23T02:48:27.128Z,30.23
2019-04-23T02:50:40.476Z,30.23
2019-04-23T02:53:14.456Z,28.75
2019-04-23T02:55:55.017Z,28.87
2019-04-23T02:58:21.811Z,27.00
2019-04-23T03:00:55.767Z,27.52
2019-04-23T03:05:46.679Z,25.05
2019-04-23T03:11:26.015Z,26.15
2019-04-23T03:14:03.639Z,25.72
2019-04-23T03:16:37.856Z,25.90
2019-04-23T03:19:19.189Z,25.90
2019-04-23T03:21:51.861Z,25.43
2019-04-23T03:24:34.667Z,26.52
2019-04-23T03:29:45.082Z,26.25
2019-04-23T03:37:23.207Z,25.92
2019-04-23T03:39:52.957Z,26.15
2019-04-23T03:42:11.588Z,25.30
2019-04-23T03:44:40.178Z,24.57
2019-04-23T03:49:41.096Z,23.75
2019-04-23T03:52:12.104Z,23.98
2019-04-23T03:54:42.153Z,22.07
2019-04-23T03:57:13.357Z,23.67
2019-04-23T03:59:52.032Z,23.30
2019-04-23T04:02:20.615Z,23.00
2019-04-23T04:04:33.470Z,22.93
2019-04-23T04:09:51.711Z,22.82
2019-04-23T04:17:26.299Z,21.02
2019-04-23T04:22:38.068Z,21.60
2019-04-23T04:25:03.274Z,20.62
2019-04-23T04:27:36.572Z,20.50
2019-04-23T04:30:22.239Z,20.80
2019-04-23T04:43:11.280Z,19.45
2019-04-23T04:45:37.124Z,17.75
2019-04-23T04:47:44.845Z,17.92
2019-04-23T04:50:24.072Z,17.75
2019-04-23T04:52:57.984Z,17.67
2019-04-23T04:55:21.201Z,17.70
2019-04-23T04:57:52.167Z,16.90
2019-04-23T05:00:32.922Z,18.02
2019-04-23T05:07:54.703Z,17.50
2019-04-23T05:13:03.556Z,16.27
2019-04-23T05:15:18.855Z,17.15
2019-04-23T05:23:18.381Z,16.62
2019-04-23T05:25:32.004Z,16.35
2019-04-23T05:28:12.605Z,15.45
2019-04-23T05:33:13.298Z,16.20
2019-04-23T05:36:02.641Z,16.25
2019-04-23T05:38:21.866Z,14.80
2019-04-23T05:40:49.823Z,14.73
2019-04-23T05:43:30.749Z,15.20
2019-04-23T05:45:44.719Z,15.55
2019-04-23T05:53:14.597Z,15.18
2019-04-23T05:55:42.703Z,14.83
2019-04-23T05:58:16.634Z,14.53
2019-04-23T06:00:45.081Z,14.68
2019-04-23T06:03:16.054Z,14.45
2019-04-23T06:05:48.084Z,14.40
2019-04-23T06:08:20.219Z,15.18
2019-04-23T06:10:56.706Z,15.28
2019-04-23T06:13:22.477Z,15.83
2019-04-23T06:16:05.018Z,15.93
2019-04-23T06:18:26.672Z,14.55
2019-04-23T06:23:33.098Z,15.15
2019-04-23T06:26:10.177Z,14.50
2019-04-23T06:28:23.804Z,14.45
2019-04-23T06:30:54.374Z,13.95
2019-04-23T06:33:20.961Z,14.78
2019-04-23T06:35:51.604Z,14.43
2019-04-23T06:40:55.398Z,13.83
2019-04-23T06:43:56.359Z,13.48
2019-04-23T06:48:44.480Z,13.03
2019-04-23T06:53:36.335Z,12.35
2019-04-23T06:56:17.723Z,12.82
2019-04-23T06:58:43.310Z,13.20
2019-04-23T07:01:12.988Z,11.57
2019-04-23T07:03:51.824Z,12.63
2019-04-23T07:09:09.946Z,13.50
2019-04-23T07:11:23.783Z,12.37
2019-04-23T07:16:14.654Z,11.73
2019-04-23T07:21:18.339Z,11.90
2019-04-23T07:23:54.682Z,11.60
2019-04-23T07:26:30.429Z,11.30
2019-04-23T07:28:53.181Z,11.48
2019-04-23T07:31:21.501Z,11.78
2019-04-23T07:33:52.169Z,11.88
2019-04-23T07:36:24.421Z,11.65
2019-04-23T07:39:01.111Z,11.80
2019-04-23T07:49:41.151Z,11.40
2019-04-23T07:52:10.655Z,11.28
2019-04-23T07:54:39.996Z,10.55
2019-04-23T07:57:18.719Z,10.93
2019-04-23T07:59:56.408Z,9.95
2019-04-23T08:02:28.967Z,10.18
2019-04-23T08:05:00.576Z,9.63
2019-04-23T08:07:26.860Z,10.35
2019-04-23T08:10:02.361Z,10.45
2019-04-23T08:14:59.737Z,10.48
2019-04-23T08:17:27.842Z,10.68
2019-04-23T08:19:59.387Z,10.48
2019-04-23T08:25:19.229Z,10.32
2019-04-23T08:27:38.360Z,9.88
2019-04-23T08:30:07.558Z,10.43
2019-04-23T08:32:27.697Z,10.20
2019-04-23T08:35:10.846Z,11.22
2019-04-23T08:40:13.258Z,9.53
2019-04-23T08:42:46.781Z,10.53
2019-04-23T08:45:22.588Z,11.12
2019-04-23T08:47:50.692Z,10.35
2019-04-23T08:50:23.341Z,10.08
2019-04-23T08:52:56.149Z,10.15
2019-04-23T08:55:34.615Z,10.20
2019-04-23T08:57:47.494Z,10.38
2019-04-23T09:00:23.182Z,10.53
2019-04-23T09:03:02.738Z,10.65
2019-04-23T09:07:59.788Z,10.45
2019-04-23T09:10:31.701Z,10.03
2019-04-23T09:13:14.491Z,10.75
2019-04-23T09:15:31.591Z,10.18
2019-04-23T09:18:02.828Z,10.30
2019-04-23T09:22:51.760Z,10.88
2019-04-23T09:25:36.727Z,10.88
2019-04-23T09:28:23.851Z,10.80
2019-04-23T09:30:28.576Z,10.15
2019-04-23T09:32:58.841Z,10.50
2019-04-23T09:35:30.846Z,10.25
2019-04-23T09:44:12.216Z,10.23
2019-04-23T09:46:34.452Z,10.10
2019-04-23T09:49:10.629Z,10.08
2019-04-23T09:51:38.240Z,10.00
2019-04-23T09:54:09.487Z,10.32
2019-04-23T09:56:36.387Z,9.65
2019-04-23T09:59:08.963Z,9.75
2019-04-23T10:01:41.022Z,9.38
2019-04-23T10:03:51.622Z,9.95
2019-04-23T10:06:18.090Z,9.93
2019-04-23T10:08:46.793Z,9.83
2019-04-23T10:11:11.304Z,9.98
2019-04-23T10:13:40.705Z,9.45
2019-04-23T10:16:12.211Z,9.60
2019-04-23T10:18:39.473Z,9.98
2019-04-23T10:21:08.020Z,9.30
2019-04-23T10:23:37.031Z,9.53
2019-04-23T10:26:06.235Z,9.00
2019-04-23T10:28:38.038Z,9.03
2019-04-23T10:31:07.191Z,9.60
2019-04-23T10:33:35.807Z,9.18
2019-04-23T10:36:11.038Z,8.78
2019-04-23T10:38:36.368Z,9.83
2019-04-23T10:41:06.418Z,10.07
2019-04-23T10:43:38.753Z,10.23
2019-04-23T10:46:25.587Z,9.88
2019-04-23T10:51:41.304Z,8.60
2019-04-23T10:54:29.156Z,9.40
2019-04-23T10:56:47.865Z,9.23
2019-04-23T10:59:38.912Z,9.65
2019-04-23T11:02:31.598Z,8.15
2019-04-23T11:07:20.512Z,9.23
2019-04-23T11:15:27.180Z,8.00
2019-04-23T11:20:35.381Z,8.60
2019-04-23T11:22:56.775Z,8.98
2019-04-23T11:25:32.969Z,9.28
2019-04-23T11:35:42.466Z,8.10
2019-04-23T11:38:06.524Z,8.68
2019-04-23T11:38:32.547Z,8.80
2019-04-23T11:40:28.240Z,7.97
2019-04-23T11:43:11.505Z,8.63
2019-04-23T11:50:59.847Z,8.55
2019-04-23T11:55:39.200Z,7.60
2019-04-23T12:00:45.530Z,8.43
2019-04-23T12:03:19.412Z,8.35
2019-04-23T12:06:27.722Z,8.13
2019-04-23T12:08:57.085Z,8.05
2019-04-23T12:14:24.210Z,7.75
2019-04-23T12:17:08.030Z,8.25
2019-04-23T12:22:02.910Z,8.23
2019-04-23T12:24:58.617Z,8.13
2019-04-23T12:27:08.134Z,7.75
2019-04-23T12:32:41.825Z,7.90
2019-04-23T12:37:40.718Z,7.55
2019-04-23T12:42:48.731Z,7.10
2019-04-23T12:45:05.134Z,6.97
2019-04-23T12:47:44.927Z,7.47
2019-04-23T12:50:31.170Z,7.80
2019-04-23T12:52:41.243Z,7.37
2019-04-23T12:55:15.032Z,7.37
2019-04-23T12:57:34.462Z,7.17
2019-04-23T13:00:09.963Z,6.85
2019-04-23T13:05:23.858Z,7.55
2019-04-23T13:07:38.054Z,8.15
2019-04-23T13:10:20.997Z,9.13
2019-04-23T13:12:44.928Z,8.40
2019-04-23T13:15:13.638Z,9.55
2019-04-23T13:20:23.262Z,8.75
2019-04-23T13:25:32.962Z,6.70
2019-04-23T13:28:02.906Z,8.00
2019-04-23T13:30:31.491Z,7.92
2019-04-23T13:33:02.775Z,8.00
2019-04-23T13:37:59.297Z,7.80
2019-04-23T13:40:31.614Z,7.65
2019-04-23T13:59:15.637Z,7.67
2019-04-23T14:04:26.913Z,7.87
2019-04-23T14:35:04.787Z,9.60
2019-04-23T14:40:21.920Z,8.40
2019-04-23T14:46:23.440Z,9.13
2019-04-23T14:54:35.976Z,9.35
2019-04-23T14:57:03.562Z,9.15
2019-04-23T14:59:13.412Z,8.88
2019-04-23T15:18:35.682Z,9.23
2019-04-23T15:21:28.715Z,9.63
2019-04-23T15:24:00.225Z,9.63
2019-04-23T15:28:15.045Z,9.25
2019-04-23T15:31:20.779Z,9.65
2019-04-23T15:33:51.746Z,9.30
2019-04-23T15:38:55.762Z,9.55
2019-04-23T15:41:19.787Z,10.18
2019-04-23T15:47:04.626Z,9.45
2019-04-23T15:49:36.410Z,9.55
2019-04-23T15:52:09.014Z,9.23
2019-04-23T15:54:45.418Z,9.60
2019-04-23T16:01:43.262Z,10.88
2019-04-23T16:04:11.312Z,10.43
2019-04-23T16:06:41.549Z,10.08
2019-04-23T16:12:09.731Z,10.78
2019-04-23T16:14:49.426Z,10.75
2019-04-23T16:17:24.070Z,11.75
2019-04-23T16:20:06.209Z,11.03
2019-04-23T16:22:28.462Z,11.22
2019-04-23T16:25:01.124Z,11.55
2019-04-23T16:27:22.422Z,11.95
2019-04-23T16:30:09.526Z,11.22
2019-04-23T16:32:52.356Z,12.07
2019-04-23T16:35:28.276Z,12.15
2019-04-23T16:37:49.255Z,13.80
2019-04-23T16:40:19.981Z,13.95
2019-04-23T16:42:53.913Z,14.58
2019-04-23T16:47:48.439Z,16.35
2019-04-23T16:50:20.870Z,16.67
2019-04-23T16:52:51.900Z,16.62
2019-04-23T16:55:17.778Z,17.52
2019-04-23T16:57:59.810Z,17.95
2019-04-23T17:02:54.759Z,18.70
2019-04-23T17:05:23.464Z,19.35
2019-04-23T17:08:06.730Z,18.12
2019-04-23T17:10:23.249Z,18.62
2019-04-23T17:12:54.725Z,18.75
2019-04-23T17:17:46.686Z,18.20
2019-04-23T17:20:28.835Z,18.55
2019-04-23T17:25:17.261Z,17.95
2019-04-23T17:27:54.450Z,18.20
2019-04-23T17:30:20.366Z,17.40
2019-04-23T17:33:13.785Z,18.77
2019-04-23T17:35:41.928Z,18.73
2019-04-23T17:38:21.215Z,19.55
2019-04-23T17:41:05.785Z,18.90
2019-04-23T17:46:22.503Z,18.52
2019-04-23T17:48:55.127Z,19.00
2019-04-23T17:51:19.794Z,18.95
2019-04-23T17:53:54.486Z,19.37
2019-04-23T17:59:00.727Z,18.02
2019-04-23T18:04:10.367Z,18.17
2019-04-23T18:06:45.312Z,18.77
2019-04-23T18:09:16.731Z,18.65
2019-04-23T18:11:52.280Z,18.42
2019-04-23T18:16:41.032Z,19.05
2019-04-23T18:19:10.237Z,18.02
2019-04-23T18:27:06.706Z,18.32
2019-04-23T18:32:32.800Z,20.80
2019-04-23T18:35:15.515Z,21.50
2019-04-23T18:40:00.369Z,22.27
2019-04-23T18:42:41.729Z,20.43
2019-04-23T18:45:20.253Z,21.27
2019-04-23T18:47:48.928Z,20.88
2019-04-23T18:50:19.551Z,20.60
2019-04-23T18:55:19.146Z,20.80
2019-04-23T18:57:40.229Z,21.05
2019-04-23T19:00:18.885Z,19.80
2019-04-23T19:10:38.152Z,20.60
2019-04-23T19:13:09.558Z,19.87
2019-04-23T19:15:39.639Z,20.72
2019-04-23T19:18:06.021Z,21.20
2019-04-23T19:23:16.460Z,20.75
2019-04-23T19:25:38.920Z,21.10
2019-04-23T19:28:33.147Z,20.17
2019-04-23T19:30:57.269Z,20.05
2019-04-23T19:33:29.294Z,19.80
2019-04-23T19:36:03.845Z,24.63
2019-04-23T19:38:29.216Z,22.27
2019-04-23T19:43:31.351Z,22.98
2019-04-23T19:48:33.448Z,22.05
2019-04-23T19:56:16.788Z,23.90
2019-04-23T19:58:56.798Z,26.48
2019-04-23T20:03:50.116Z,24.57
2019-04-23T20:06:27.314Z,23.25
2019-04-23T20:11:43.837Z,22.13
2019-04-23T20:14:03.194Z,22.67
2019-04-23T20:17:04.436Z,22.50
2019-04-23T20:21:39.783Z,24.72
2019-04-23T20:26:50.399Z,23.80
2019-04-23T20:29:45.453Z,24.27
2019-04-23T20:34:56.480Z,25.12
2019-04-23T20:37:12.555Z,25.12
2019-04-23T20:39:55.086Z,25.15
2019-04-23T20:44:53.472Z,25.32
2019-04-23T20:47:15.586Z,24.72
2019-04-23T20:49:48.960Z,24.65
2019-04-23T20:52:29.304Z,25.80
2019-04-23T20:57:43.108Z,26.07
2019-04-23T21:00:04.788Z,24.63
2019-04-23T21:07:57.510Z,25.12
2019-04-23T21:13:05.645Z,25.60
2019-04-23T21:15:28.326Z,28.47
2019-04-23T21:20:35.752Z,28.55
2019-04-23T21:23:04.170Z,28.10
2019-04-23T21:25:31.065Z,29.20
2019-04-23T21:31:00.645Z,27.25
2019-04-23T21:33:18.951Z,27.02
2019-04-23T21:44:08.613Z,26.95
2019-04-23T21:46:36.748Z,27.22
2019-04-23T21:51:49.292Z,26.95
2019-04-23T21:54:01.868Z,26.62
2019-04-23T21:56:39.612Z,28.80
2019-04-23T21:59:11.954Z,26.77
2019-04-23T22:06:43.422Z,27.75
2019-04-23T22:09:16.008Z,27.52
2019-04-23T22:14:10.247Z,27.98
2019-04-23T22:16:53.936Z,27.67
2019-04-23T22:19:19.715Z,29.05
2019-04-23T22:24:21.404Z,28.98
2019-04-23T22:26:38.154Z,29.67
2019-04-23T22:29:26.129Z,29.32
2019-04-23T22:31:47.190Z,28.85
2019-04-23T22:34:17.620Z,29.92
2019-04-23T22:36:51.819Z,30.05
2019-04-23T22:39:17.681Z,28.77
2019-04-23T22:41:54.172Z,31.20
2019-04-23T22:44:14.429Z,29.60
2019-04-23T22:46:52.443Z,30.17
2019-04-23T22:52:18.770Z,30.57
2019-04-23T22:54:30.656Z,30.30
2019-04-23T22:56:57.900Z,29.87
2019-04-23T22:59:50.892Z,29.18
2019-04-23T23:05:12.175Z,29.92
2019-04-23T23:07:47.150Z,30.68
2019-04-23T23:10:12.441Z,30.80
2019-04-23T23:12:56.032Z,31.20
2019-04-23T23:15:09.983Z,28.23
2019-04-23T23:17:43.017Z,32.00
2019-04-23T23:20:14.028Z,32.50
2019-04-23T23:22:51.802Z,30.82
2019-04-23T23:25:15.187Z,31.57
2019-04-23T23:27:40.436Z,32.50
2019-04-23T23:30:12.467Z,32.63
2019-04-23T23:32:39.676Z,33.35
2019-04-23T23:35:24.521Z,33.58
2019-04-23T23:37:44.248Z,31.82
2019-04-23T23:43:00.216Z,33.18
2019-04-23T23:47:52.245Z,32.23
2019-04-23T23:50:35.439Z,32.95
2019-04-23T23:53:00.190Z,33.58
2019-04-23T23:55:25.245Z,32.65
2019-04-23T23:57:51.157Z,33.28
